sensor_id;sensor_type;location;lat;lon;timestamp;pressure;altitude;pressure_sealevel;temperature;humidity
45113;BME280;30873;53.908;27.576;2022-11-21T00:04:31;1014.3;;;-1.2;66.1
45113;BME280;30873;53.908;27.576;2022-11-21T00:09:43;1014.2;;;-1.2;66
45113;BME280;30873;53.908;27.576;2022-11-21T00:14:33;1014.3;;;-1.3;66.2
45113;BME280;30873;53.908;27.576;2022-11-21T00:19:43;1014.3;;;-1.2;66.5
45113;BME280;30873;53.908;27.576;2022-11-21T00:24:01;1014.3;;;-1.1;66.2
45113;BME280;30873;53.908;27.576;2022-11-21T00:29:07;1014.4;;;-1.1;66.4
45113;BME280;30873;53.908;27.576;2022-11-21T00:34:45;1014.3;;;-1;66.2
45113;BME280;30873;53.908;27.576;2022-11-21T00:39:07;1014.3;;;-1.1;66.2
45113;BME280;30873;53.908;27.576;2022-11-21T00:44:31;1014.3;;;-1;66.4
45113;BME280;30873;53.908;27.576;2022-11-21T00:49:05;1014.3;;;-0.9;66.1
45113;BME280;30873;53.908;27.576;2022-11-21T00:54:13;1014.2;;;-1.1;66.3
45113;BME280;30873;53.908;27.576;2022-11-21T00:59:17;1014.2;;;-1;66.5
45113;BME280;30873;53.908;27.576;2022-11-21T01:04:29;1014.2;;;-1;66.5
45113;BME280;30873;53.908;27.576;2022-11-21T01:09:31;1014.1;;;-0.8;66.3
45113;BME280;30873;53.908;27.576;2022-11-21T01:14:31;1014;;;-0.7;66
45113;BME280;30873;53.908;27.576;2022-11-21T01:19:19;1014;;;-0.7;65.8
45113;BME280;30873;53.908;27.576;2022-11-21T01:24:41;1014;;;-0.7;65.9
45113;BME280;30873;53.908;27.576;2022-11-21T01:29:45;1014;;;-0.8;66
45113;BME280;30873;53.908;27.576;2022-11-21T01:34:11;1013.9;;;-0.6;66.1
45113;BME280;30873;53.908;27.576;2022-11-21T01:39:11;1013.9;;;-0.5;65.6
45113;BME280;30873;53.908;27.576;2022-11-21T01:44:01;1013.9;;;-0.6;65.4
45113;BME280;30873;53.908;27.576;2022-11-21T01:49:47;1014;;;-0.6;65.5
45113;BME280;30873;53.908;27.576;2022-11-21T01:54:21;1014;;;-0.6;65.5
45113;BME280;30873;53.908;27.576;2022-11-21T01:59:34;1013.9;;;-0.5;65.4
45113;BME280;30873;53.908;27.576;2022-11-21T02:04:01;1013.8;;;-0.6;65.4
45113;BME280;30873;53.908;27.576;2022-11-21T02:09:01;1013.9;;;-0.6;65.6
45113;BME280;30873;53.908;27.576;2022-11-21T02:14:21;1013.8;;;-0.7;65.8
45113;BME280;30873;53.908;27.576;2022-11-21T02:19:35;1013.5;;;-0.6;66.2
45113;BME280;30873;53.908;27.576;2022-11-21T02:24:21;1013.6;;;-0.5;65.8
45113;BME280;30873;53.908;27.576;2022-11-21T02:29:43;1013.7;;;-0.6;66
45113;BME280;30873;53.908;27.576;2022-11-21T02:34:11;1013.7;;;-0.4;66
45113;BME280;30873;53.908;27.576;2022-11-21T02:39:34;1013.7;;;-0.4;65.4
45113;BME280;30873;53.908;27.576;2022-11-21T02:44:22;1013.7;;;-0.5;65.6
45113;BME280;30873;53.908;27.576;2022-11-21T02:49:46;1013.7;;;-0.5;65.5
45113;BME280;30873;53.908;27.576;2022-11-21T02:54:11;1013.6;;;-0.6;65.7
45113;BME280;30873;53.908;27.576;2022-11-21T02:59:11;1013.6;;;-0.7;65.7
45113;BME280;30873;53.908;27.576;2022-11-21T03:04:21;1013.5;;;-0.8;66.2
45113;BME280;30873;53.908;27.576;2022-11-21T03:09:45;1013.5;;;-0.6;66.4
45113;BME280;30873;53.908;27.576;2022-11-21T03:14:45;1013.5;;;-0.5;65.9
45113;BME280;30873;53.908;27.576;2022-11-21T03:19:43;1013.6;;;-0.3;65.8
45113;BME280;30873;53.908;27.576;2022-11-21T03:24:45;1013.6;;;-0.3;65.3
45113;BME280;30873;53.908;27.576;2022-11-21T03:29:33;1013.7;;;-0.3;65.1
45113;BME280;30873;53.908;27.576;2022-11-21T03:34:33;1013.6;;;-0.3;65.1
45113;BME280;30873;53.908;27.576;2022-11-21T03:39:21;1013.6;;;-0.3;64.9
45113;BME280;30873;53.908;27.576;2022-11-21T03:44:45;1013.5;;;-0.3;65.1
45113;BME280;30873;53.908;27.576;2022-11-21T03:49:01;1013.5;;;-0.3;65
45113;BME280;30873;53.908;27.576;2022-11-21T03:54:31;1013.6;;;-0.4;64.9
45113;BME280;30873;53.908;27.576;2022-11-21T03:59:21;1013.6;;;-0.5;65.3
45113;BME280;30873;53.908;27.576;2022-11-21T04:04:45;1013.6;;;-0.5;65.3
45113;BME280;30873;53.908;27.576;2022-11-21T04:09:21;1013.6;;;-0.6;65.7
45113;BME280;30873;53.908;27.576;2022-11-21T04:14:19;1013.6;;;-0.6;65.9
45113;BME280;30873;53.908;27.576;2022-11-21T04:19:45;1013.5;;;-0.5;65.8
45113;BME280;30873;53.908;27.576;2022-11-21T04:24:45;1013.4;;;-0.4;66
45113;BME280;30873;53.908;27.576;2022-11-21T04:29:43;1013.4;;;-0.3;65.5
45113;BME280;30873;53.908;27.576;2022-11-21T04:34:45;1013.3;;;-0.3;65.2
45113;BME280;30873;53.908;27.576;2022-11-21T04:39:11;1013.4;;;-0.2;65.4
45113;BME280;30873;53.908;27.576;2022-11-21T04:44:33;1013.4;;;-0.2;65
45113;BME280;30873;53.908;27.576;2022-11-21T04:49:33;1013.5;;;-0.4;65.4
45113;BME280;30873;53.908;27.576;2022-11-21T04:54:31;1013.4;;;-0.4;65.5
45113;BME280;30873;53.908;27.576;2022-11-21T04:59:43;1013.5;;;-0.5;65.8
45113;BME280;30873;53.908;27.576;2022-11-21T05:04:01;1013.4;;;-0.4;66
45113;BME280;30873;53.908;27.576;2022-11-21T05:09:35;1013.4;;;-0.3;65.9
45113;BME280;30873;53.908;27.576;2022-11-21T05:14:29;1013.3;;;-0.6;65.7
45113;BME280;30873;53.908;27.576;2022-11-21T05:19:43;1013.2;;;-0.7;66.2
45113;BME280;30873;53.908;27.576;2022-11-21T05:24:21;1013.2;;;-0.6;66.5
45113;BME280;30873;53.908;27.576;2022-11-21T05:29:01;1013.3;;;-0.6;66.6
45113;BME280;30873;53.908;27.576;2022-11-21T05:34:21;1013.2;;;-0.7;66.5
45113;BME280;30873;53.908;27.576;2022-11-21T05:39:31;1013.3;;;-0.9;66.9
45113;BME280;30873;53.908;27.576;2022-11-21T05:44:43;1013.2;;;-0.8;67.3
45113;BME280;30873;53.908;27.576;2022-11-21T05:49:41;1013.2;;;-0.8;67.2
45113;BME280;30873;53.908;27.576;2022-11-21T05:54:01;1013.1;;;-0.8;67.4
45113;BME280;30873;53.908;27.576;2022-11-21T05:59:23;1013.1;;;-0.7;67.4
45113;BME280;30873;53.908;27.576;2022-11-21T06:04:27;1013.2;;;-0.5;67.5
45113;BME280;30873;53.908;27.576;2022-11-21T06:09:21;1013.2;;;-0.3;67.2
45113;BME280;30873;53.908;27.576;2022-11-21T06:14:33;1013.2;;;-0.2;67
45113;BME280;30873;53.908;27.576;2022-11-21T06:19:01;1013.2;;;-0.2;66.8
45113;BME280;30873;53.908;27.576;2022-11-21T06:24:29;1013.2;;;-0.2;66.9
45113;BME280;30873;53.908;27.576;2022-11-21T06:29:19;1013.3;;;-0.1;66.8
45113;BME280;30873;53.908;27.576;2022-11-21T06:34:31;1013.3;;;0.1;66.4
45113;BME280;30873;53.908;27.576;2022-11-21T06:39:21;1013.2;;;0;66.4
45113;BME280;30873;53.908;27.576;2022-11-21T06:44:17;1013.2;;;0.2;66.7
45113;BME280;30873;53.908;27.576;2022-11-21T06:49:21;1013.2;;;0.5;66.3
45113;BME280;30873;53.908;27.576;2022-11-21T06:54:31;1013.2;;;0.7;65.5
45113;BME280;30873;53.908;27.576;2022-11-21T06:59:19;1013.3;;;0.6;64.8
45113;BME280;30873;53.908;27.576;2022-11-21T07:04:43;1013.2;;;0.5;65.4
45113;BME280;30873;53.908;27.576;2022-11-21T07:09:11;1013.2;;;0.9;65.2
45113;BME280;30873;53.908;27.576;2022-11-21T07:14:33;1013.1;;;1.2;64.1
45113;BME280;30873;53.908;27.576;2022-11-21T07:19:33;1013.2;;;1.3;63.5
45113;BME280;30873;53.908;27.576;2022-11-21T07:24:23;1013.3;;;1.4;63.1
45113;BME280;30873;53.908;27.576;2022-11-21T07:29:45;1013.2;;;1.5;62.5
45113;BME280;30873;53.908;27.576;2022-11-21T07:34:11;1013.2;;;1.2;62.6
45113;BME280;30873;53.908;27.576;2022-11-21T07:39:45;1013.2;;;1.2;63.1
45113;BME280;30873;53.908;27.576;2022-11-21T07:44:09;1013.2;;;1.4;62.4
45113;BME280;30873;53.908;27.576;2022-11-21T07:49:33;1013.2;;;1.2;62.7
45113;BME280;30873;53.908;27.576;2022-11-21T07:54:11;1013.2;;;1.5;62.6
45113;BME280;30873;53.908;27.576;2022-11-21T07:59:01;1013.3;;;1.7;61.7
45113;BME280;30873;53.908;27.576;2022-11-21T08:04:21;1013.3;;;1.9;61.5
45113;BME280;30873;53.908;27.576;2022-11-21T08:09:35;1013.3;;;2;60.7
45113;BME280;30873;53.908;27.576;2022-11-21T08:14:21;1013.3;;;2.1;60.7
45113;BME280;30873;53.908;27.576;2022-11-21T08:19:43;1013.4;;;2.1;60.5
45113;BME280;30873;53.908;27.576;2022-11-21T08:24:01;1013.4;;;1.7;61.3
45113;BME280;30873;53.908;27.576;2022-11-21T08:29:03;1013.3;;;1.6;61.2
45113;BME280;30873;53.908;27.576;2022-11-21T08:34:33;1013.3;;;1.5;61.4
45113;BME280;30873;53.908;27.576;2022-11-21T08:39:33;1013.2;;;1.6;61.8
45113;BME280;30873;53.908;27.576;2022-11-21T08:44:45;1013.2;;;1.9;61.2
45113;BME280;30873;53.908;27.576;2022-11-21T08:49:01;1013.2;;;2.1;61.1
45113;BME280;30873;53.908;27.576;2022-11-21T08:54:45;1013.1;;;2.6;60
45113;BME280;30873;53.908;27.576;2022-11-21T08:59:19;1013;;;2.8;59
45113;BME280;30873;53.908;27.576;2022-11-21T09:04:33;1013;;;2.8;58.8
45113;BME280;30873;53.908;27.576;2022-11-21T09:09:23;1013;;;2.9;58.8
45113;BME280;30873;53.908;27.576;2022-11-21T09:14:13;1013;;;3.1;58.4
45113;BME280;30873;53.908;27.576;2022-11-21T09:19:25;1013;;;3;58.2
45113;BME280;30873;53.908;27.576;2022-11-21T09:24:31;1013;;;3.2;58.1
45113;BME280;30873;53.908;27.576;2022-11-21T09:29:19;1013;;;3.3;57.9
45113;BME280;30873;53.908;27.576;2022-11-21T09:34:45;1013.1;;;3;58.3
45113;BME280;30873;53.908;27.576;2022-11-21T09:39:09;1013;;;2.5;58.7
45113;BME280;30873;53.908;27.576;2022-11-21T09:44:52;1013;;;2.4;59.5
45113;BME280;30873;53.908;27.576;2022-11-21T09:49:31;1012.8;;;2.7;59.3
45113;BME280;30873;53.908;27.576;2022-11-21T09:54:31;1012.8;;;2.7;58.8
45113;BME280;30873;53.908;27.576;2022-11-21T09:59:47;1012.8;;;2.9;58.4
45113;BME280;30873;53.908;27.576;2022-11-21T10:04:01;1012.7;;;2.8;58.3
45113;BME280;30873;53.908;27.576;2022-11-21T10:09:54;1012.7;;;2.9;58.5
45113;BME280;30873;53.908;27.576;2022-11-21T10:14:16;1012.7;;;3;58.4
45113;BME280;30873;53.908;27.576;2022-11-21T10:19:48;1012.7;;;3.1;58.3
45113;BME280;30873;53.908;27.576;2022-11-21T10:24:28;1012.7;;;3.2;58
45113;BME280;30873;53.908;27.576;2022-11-21T10:29:22;1012.9;;;3.1;58.2
45113;BME280;30873;53.908;27.576;2022-11-21T10:34:24;1012.7;;;2.7;58.9
45113;BME280;30873;53.908;27.576;2022-11-21T10:39:36;1012.8;;;2.8;59.4
45113;BME280;30873;53.908;27.576;2022-11-21T10:44:24;1012.8;;;3.2;58.7
45113;BME280;30873;53.908;27.576;2022-11-21T10:49:45;1012.8;;;3.3;58.4
45113;BME280;30873;53.908;27.576;2022-11-21T10:54:13;1012.9;;;3.1;58.7
45113;BME280;30873;53.908;27.576;2022-11-21T10:59:54;1012.9;;;3;58.7
45113;BME280;30873;53.908;27.576;2022-11-21T11:04:21;1012.7;;;3.1;58.3
45113;BME280;30873;53.908;27.576;2022-11-21T11:09:35;1012.7;;;3.1;58.5
45113;BME280;30873;53.908;27.576;2022-11-21T11:14:15;1012.6;;;3.3;58.3
45113;BME280;30873;53.908;27.576;2022-11-21T11:19:15;1012.6;;;3.4;58.1
45113;BME280;30873;53.908;27.576;2022-11-21T11:24:51;1012.6;;;3.4;58.7
45113;BME280;30873;53.908;27.576;2022-11-21T11:29:48;1012.6;;;3.5;58.5
45113;BME280;30873;53.908;27.576;2022-11-21T11:34:37;1012.6;;;3.4;58.7
45113;BME280;30873;53.908;27.576;2022-11-21T11:39:03;1012.5;;;3.3;59.2
45113;BME280;30873;53.908;27.576;2022-11-21T11:44:02;1012.5;;;3;59.1
45113;BME280;30873;53.908;27.576;2022-11-21T11:49:02;1012.5;;;2.7;60
45113;BME280;30873;53.908;27.576;2022-11-21T11:54:47;1012.4;;;2.7;60.5
45113;BME280;30873;53.908;27.576;2022-11-21T11:59:25;1012.3;;;2.6;60.3
45113;BME280;30873;53.908;27.576;2022-11-21T12:04:47;1012.3;;;2.5;60.5
45113;BME280;30873;53.908;27.576;2022-11-21T12:09:22;1012.3;;;2.6;60.5
45113;BME280;30873;53.908;27.576;2022-11-21T12:14:50;1012.2;;;2.8;60.1
45113;BME280;30873;53.908;27.576;2022-11-21T12:19:21;1012.2;;;3.1;59.6
45113;BME280;30873;53.908;27.576;2022-11-21T12:24:38;1012.3;;;3.1;59.3
45113;BME280;30873;53.908;27.576;2022-11-21T12:29:36;1012.3;;;3;59.2
45113;BME280;30873;53.908;27.576;2022-11-21T12:34:02;1012.3;;;2.7;59.8
45113;BME280;30873;53.908;27.576;2022-11-21T12:39:51;1012.3;;;2.5;60.7
45113;BME280;30873;53.908;27.576;2022-11-21T12:44:40;1012.3;;;2.4;60.9
45113;BME280;30873;53.908;27.576;2022-11-21T12:49:38;1012.3;;;2.4;61.2
45113;BME280;30873;53.908;27.576;2022-11-21T12:54:03;1012.3;;;2.4;61.2
45113;BME280;30873;53.908;27.576;2022-11-21T12:59:01;1012.3;;;2.2;61.4
45113;BME280;30873;53.908;27.576;2022-11-21T13:04:21;1012.2;;;2.3;61.7
45113;BME280;30873;53.908;27.576;2022-11-21T13:09:39;1012.2;;;2.2;62.1
45113;BME280;30873;53.908;27.576;2022-11-21T13:14:24;1012.2;;;2.2;62.4
45113;BME280;30873;53.908;27.576;2022-11-21T13:19:48;1012.1;;;2.2;62.8
45113;BME280;30873;53.908;27.576;2022-11-21T13:30:15;1012.1;;;2.2;62.8
45113;BME280;30873;53.908;27.576;2022-11-21T13:34:38;1012.1;;;2;63.1
45113;BME280;30873;53.908;27.576;2022-11-21T13:39:36;1012.1;;;2;63.5
45113;BME280;30873;53.908;27.576;2022-11-21T13:44:49;1012;;;1.9;63.3
45113;BME280;30873;53.908;27.576;2022-11-21T13:49:03;1011.9;;;1.8;63.6
45113;BME280;30873;53.908;27.576;2022-11-21T13:54:58;1011.8;;;1.8;63.6
45113;BME280;30873;53.908;27.576;2022-11-21T13:59:54;1011.8;;;1.6;63.7
45113;BME280;30873;53.908;27.576;2022-11-21T14:04:31;1011.8;;;1.5;64.1
45113;BME280;30873;53.908;27.576;2022-11-21T14:09:24;1011.8;;;1.5;64.7
45113;BME280;30873;53.908;27.576;2022-11-21T14:14:01;1011.8;;;1.4;64.8
45113;BME280;30873;53.908;27.576;2022-11-21T14:19:01;1011.8;;;1.4;65
45113;BME280;30873;53.908;27.576;2022-11-21T14:24:51;1011.9;;;1.4;65.2
45113;BME280;30873;53.908;27.576;2022-11-21T14:29:16;1011.8;;;1.4;65.2
45113;BME280;30873;53.908;27.576;2022-11-21T14:34:49;1011.8;;;1.3;65.3
45113;BME280;30873;53.908;27.576;2022-11-21T14:39:04;1011.7;;;1.3;65.4
45113;BME280;30873;53.908;27.576;2022-11-21T14:45:04;1011.6;;;1.4;65.4
45113;BME280;30873;53.908;27.576;2022-11-21T14:49:24;1011.5;;;1.3;65.4
45113;BME280;30873;53.908;27.576;2022-11-21T14:54:38;1011.5;;;1.3;65.5
45113;BME280;30873;53.908;27.576;2022-11-21T14:59:37;1011.4;;;1.5;65.6
45113;BME280;30873;53.908;27.576;2022-11-21T15:04:13;1011.3;;;1.5;65.2
45113;BME280;30873;53.908;27.576;2022-11-21T15:09:37;1011.2;;;1.5;65.2
45113;BME280;30873;53.908;27.576;2022-11-21T15:14:49;1011.1;;;1.5;65.6
45113;BME280;30873;53.908;27.576;2022-11-21T15:19:41;1011;;;1.5;65.4
45113;BME280;30873;53.908;27.576;2022-11-21T15:24:14;1010.9;;;1.5;65.6
45113;BME280;30873;53.908;27.576;2022-11-21T15:29:16;1010.9;;;1.6;65.5
45113;BME280;30873;53.908;27.576;2022-11-21T15:34:24;1010.9;;;1.6;65.3
45113;BME280;30873;53.908;27.576;2022-11-21T15:39:51;1010.8;;;1.7;65.2
45113;BME280;30873;53.908;27.576;2022-11-21T15:44:23;1010.8;;;1.7;65
45113;BME280;30873;53.908;27.576;2022-11-21T15:49:39;1010.7;;;1.6;64.9
45113;BME280;30873;53.908;27.576;2022-11-21T15:54:16;1010.7;;;1.6;65.1
45113;BME280;30873;53.908;27.576;2022-11-21T15:59:01;1010.7;;;1.7;65
45113;BME280;30873;53.908;27.576;2022-11-21T16:04:27;1010.6;;;1.7;65.1
45113;BME280;30873;53.908;27.576;2022-11-21T16:09:37;1010.6;;;1.7;65.1
45113;BME280;30873;53.908;27.576;2022-11-21T16:14:35;1010.6;;;1.6;65.3
45113;BME280;30873;53.908;27.576;2022-11-21T16:19:01;1010.7;;;1.6;65.5
45113;BME280;30873;53.908;27.576;2022-11-21T16:24:01;1010.7;;;1.7;65.3
45113;BME280;30873;53.908;27.576;2022-11-21T16:29:51;1010.7;;;1.7;65.1
45113;BME280;30873;53.908;27.576;2022-11-21T16:34:51;1010.6;;;1.7;65.2
45113;BME280;30873;53.908;27.576;2022-11-21T16:39:41;1010.5;;;1.7;65
45113;BME280;30873;53.908;27.576;2022-11-21T16:44:25;1010.5;;;1.6;65.2
45113;BME280;30873;53.908;27.576;2022-11-21T16:49:15;1010.4;;;1.6;65.3
45113;BME280;30873;53.908;27.576;2022-11-21T16:54:49;1010.5;;;1.5;65.4
45113;BME280;30873;53.908;27.576;2022-11-21T16:59:27;1010.4;;;1.5;65.8
45113;BME280;30873;53.908;27.576;2022-11-21T17:04:39;1010.4;;;1.6;65.9
45113;BME280;30873;53.908;27.576;2022-11-21T17:09:13;1010.3;;;1.5;65.6
45113;BME280;30873;53.908;27.576;2022-11-21T17:14:13;1010.2;;;1.4;65.8
45113;BME280;30873;53.908;27.576;2022-11-21T17:19:01;1010.2;;;1.5;66
45113;BME280;30873;53.908;27.576;2022-11-21T17:24:39;1010.2;;;1.5;65.9
45113;BME280;30873;53.908;27.576;2022-11-21T17:29:37;1010.2;;;1.5;65.7
45113;BME280;30873;53.908;27.576;2022-11-21T17:34:15;1010.2;;;1.5;65.8
45113;BME280;30873;53.908;27.576;2022-11-21T17:39:11;1010.1;;;1.5;65.6
45113;BME280;30873;53.908;27.576;2022-11-21T17:44:51;1010.1;;;1.4;65.9
45113;BME280;30873;53.908;27.576;2022-11-21T17:49:49;1010;;;1.5;66.1
45113;BME280;30873;53.908;27.576;2022-11-21T17:54:25;1009.9;;;1.6;65.9
45113;BME280;30873;53.908;27.576;2022-11-21T17:59:02;1009.8;;;1.6;66
45113;BME280;30873;53.908;27.576;2022-11-21T18:04:02;1009.9;;;1.6;66.1
45113;BME280;30873;53.908;27.576;2022-11-21T18:09:51;1009.9;;;1.6;66.3
45113;BME280;30873;53.908;27.576;2022-11-21T18:14:39;1009.9;;;1.5;66.3
45113;BME280;30873;53.908;27.576;2022-11-21T18:19:37;1009.8;;;1.5;66.4
45113;BME280;30873;53.908;27.576;2022-11-21T18:24:26;1009.7;;;1.5;66.3
45113;BME280;30873;53.908;27.576;2022-11-21T18:29:23;1009.8;;;1.4;66.3
45113;BME280;30873;53.908;27.576;2022-11-21T18:34:23;1009.7;;;1.4;66.4
45113;BME280;30873;53.908;27.576;2022-11-21T18:39:33;1009.7;;;1.5;66.2
45113;BME280;30873;53.908;27.576;2022-11-21T18:44:37;1009.7;;;1.5;66
45113;BME280;30873;53.908;27.576;2022-11-21T18:49:37;1009.6;;;1.5;65.9
45113;BME280;30873;53.908;27.576;2022-11-21T18:54:13;1009.6;;;1.5;66
45113;BME280;30873;53.908;27.576;2022-11-21T18:59:49;1009.6;;;1.5;66.1
45113;BME280;30873;53.908;27.576;2022-11-21T19:04:51;1009.6;;;1.4;66.2
45113;BME280;30873;53.908;27.576;2022-11-21T19:09:25;1009.7;;;1.3;66.4
45113;BME280;30873;53.908;27.576;2022-11-21T19:14:13;1009.6;;;1.3;66.6
45113;BME280;30873;53.908;27.576;2022-11-21T19:19:03;1009.6;;;1.2;66.9
45113;BME280;30873;53.908;27.576;2022-11-21T19:24:49;1009.6;;;1.2;67
45113;BME280;30873;53.908;27.576;2022-11-21T19:29:01;1009.6;;;1.1;67.3
45113;BME280;30873;53.908;27.576;2022-11-21T19:34:49;1009.7;;;1.1;67.6
45113;BME280;30873;53.908;27.576;2022-11-21T19:39:49;1009.7;;;1.2;67.7
45113;BME280;30873;53.908;27.576;2022-11-21T19:44:13;1009.7;;;1.3;67.7
45113;BME280;30873;53.908;27.576;2022-11-21T19:49:37;1009.7;;;1.3;67.6
45113;BME280;30873;53.908;27.576;2022-11-21T19:54:37;1009.7;;;1.3;67.6
45113;BME280;30873;53.908;27.576;2022-11-21T19:59:01;1009.7;;;1.3;67.7
45113;BME280;30873;53.908;27.576;2022-11-21T20:04:13;1009.7;;;1.3;67.8
45113;BME280;30873;53.908;27.576;2022-11-21T20:09:14;1009.7;;;1.4;68.1
45113;BME280;30873;53.908;27.576;2022-11-21T20:14:35;1009.6;;;1.4;67.9
45113;BME280;30873;53.908;27.576;2022-11-21T20:19:25;1009.6;;;1.2;68.1
45113;BME280;30873;53.908;27.576;2022-11-21T20:24:47;1009.5;;;1.2;68.2
45113;BME280;30873;53.908;27.576;2022-11-21T20:29:21;1009.5;;;1.2;68.6
45113;BME280;30873;53.908;27.576;2022-11-21T20:34:11;1009.4;;;1.4;68.5
45113;BME280;30873;53.908;27.576;2022-11-21T20:39:02;1009.4;;;1.4;68.5
45113;BME280;30873;53.908;27.576;2022-11-21T20:44:43;1009.3;;;1.3;68.5
45113;BME280;30873;53.908;27.576;2022-11-21T20:49:45;1009.3;;;1.3;68.7
45113;BME280;30873;53.908;27.576;2022-11-21T20:54:47;1009.3;;;1.4;68.7
45113;BME280;30873;53.908;27.576;2022-11-21T20:59:13;1009.3;;;1.3;68.9
45113;BME280;30873;53.908;27.576;2022-11-21T21:04:25;1009.3;;;1.4;68.9
45113;BME280;30873;53.908;27.576;2022-11-21T21:09:36;1009.2;;;1.4;69
45113;BME280;30873;53.908;27.576;2022-11-21T21:14:23;1009.2;;;1.4;68.9
45113;BME280;30873;53.908;27.576;2022-11-21T21:19:49;1009.1;;;1.4;68.8
45113;BME280;30873;53.908;27.576;2022-11-21T21:24:02;1009.1;;;1.2;69.1
45113;BME280;30873;53.908;27.576;2022-11-21T21:29:25;1009;;;1.1;69.6
45113;BME280;30873;53.908;27.576;2022-11-21T21:34:13;1009;;;1.1;69.9
45113;BME280;30873;53.908;27.576;2022-11-21T21:39:51;1008.9;;;1.1;70
45113;BME280;30873;53.908;27.576;2022-11-21T21:44:01;1008.8;;;1.2;69.8
45113;BME280;30873;53.908;27.576;2022-11-21T21:49:13;1008.8;;;1.2;70
45113;BME280;30873;53.908;27.576;2022-11-21T21:54:14;1008.7;;;1.2;69.7
45113;BME280;30873;53.908;27.576;2022-11-21T21:59:43;1008.7;;;1.1;69.9
45113;BME280;30873;53.908;27.576;2022-11-21T22:04:45;1008.6;;;1.1;70.1
45113;BME280;30873;53.908;27.576;2022-11-21T22:09:45;1008.6;;;1.2;70.2
45113;BME280;30873;53.908;27.576;2022-11-21T22:14:17;1008.5;;;1.1;69.9
45113;BME280;30873;53.908;27.576;2022-11-21T22:19:29;1008.4;;;1.1;70.2
45113;BME280;30873;53.908;27.576;2022-11-21T22:24:31;1008.3;;;1.2;70
45113;BME280;30873;53.908;27.576;2022-11-21T22:29:21;1008.2;;;1.1;70.2
45113;BME280;30873;53.908;27.576;2022-11-21T22:34:47;1008;;;1.3;70.2
45113;BME280;30873;53.908;27.576;2022-11-21T22:39:11;1007.9;;;1.3;69.9
45113;BME280;30873;53.908;27.576;2022-11-21T22:44:33;1007.9;;;1.4;69.9
45113;BME280;30873;53.908;27.576;2022-11-21T22:49:33;1007.9;;;1.3;69.6
45113;BME280;30873;53.908;27.576;2022-11-21T22:54:45;1007.9;;;1.3;69.8
45113;BME280;30873;53.908;27.576;2022-11-21T22:59:17;1007.9;;;1.2;69.9
45113;BME280;30873;53.908;27.576;2022-11-21T23:04:07;1007.9;;;1.3;69.9
45113;BME280;30873;53.908;27.576;2022-11-21T23:09:21;1007.8;;;1.4;70
45113;BME280;30873;53.908;27.576;2022-11-21T23:14:47;1007.8;;;1.5;69.8
45113;BME280;30873;53.908;27.576;2022-11-21T23:19:45;1007.7;;;1.4;69.6
45113;BME280;30873;53.908;27.576;2022-11-21T23:24:45;1007.6;;;1.4;69.6
45113;BME280;30873;53.908;27.576;2022-11-21T23:29:45;1007.5;;;1.3;70
45113;BME280;30873;53.908;27.576;2022-11-21T23:34:13;1007.4;;;1.4;70
45113;BME280;30873;53.908;27.576;2022-11-21T23:39:33;1007.4;;;1.4;70
45113;BME280;30873;53.908;27.576;2022-11-21T23:44:33;1007.3;;;1.4;69.8
45113;BME280;30873;53.908;27.576;2022-11-21T23:49:47;1007.3;;;1.3;70.2
45113;BME280;30873;53.908;27.576;2022-11-21T23:54:11;1007.3;;;1.4;70
45113;BME280;30873;53.908;27.576;2022-11-21T23:59:47;1007.3;;;1.4;69.8
